Ada, West Virginia
Current Conditions -  °F | °C
As of 7:02 PM on Sunday 23 Nov 2014 (Local Time) from KBLF Reporting Station
Moderate Rain Moderate Rain  
Wind Chill: 12°   Ceiling: 1200
Heat Index: 12°   Visibility: 5mi
Dew Point:   Wind: 13mph
Humidity: 83%   Direction: 140°SE
Pressure: 29.8"   Gusts: 25mph
Location:  37.2994°N, 81.226°W
Report Text: KBLF 240002Z AUTO 14011G22KT 5SM RA BKN012 OVC022 12/09 A2980 RMK AO2 P0003 T01220094
Loading
Personal Weather Stations






























Interactive Weather Map New forecast layout! Learn more

10-Day Weather Forecast

Advertisements
Track Severe Weather on mobile